Time;durP1;ratioP1;P1;durP2;ratioP2;P2;SDS_P1;SDS_P2;PMS_P1;PMS_P2;Temp;Humidity;BMP_temperature;BMP_pressure;BME280_temperature;BME280_humidity;BME280_pressure;Samples;Min_cycle;Max_cycle;Signal;HPM_P1;HPM_P2
2022/12/14 00:01:28;;;;;;;13.13;7.30;;;;;;;-0.44;59.41;99254.75;5074672;28;20063;-61
2022/12/14 00:03:56;;;;;;;12.48;8.13;;;;;;;-0.48;59.67;99246.25;5075697;28;20044;-61
2022/12/14 00:06:25;;;;;;;12.07;7.97;;;;;;;-0.41;58.77;99227.66;5075572;28;20531;-61
2022/12/14 00:08:55;;;;;;;11.27;7.60;;;;;;;-0.39;58.85;99232.88;5075025;28;20080;-61
2022/12/14 00:11:23;;;;;;;11.98;7.43;;;;;;;-0.39;58.95;99227.41;5075328;28;20048;-61
2022/12/14 00:13:52;;;;;;;11.15;6.88;;;;;;;-0.44;59.43;99230.13;5075416;28;20060;-61
2022/12/14 00:16:22;;;;;;;9.57;6.37;;;;;;;-0.46;59.16;99224.13;5073951;28;20055;-61
2022/12/14 00:18:51;;;;;;;10.68;6.80;;;;;;;-0.42;58.91;99217.81;5075043;28;20059;-62
2022/12/14 00:21:19;;;;;;;11.02;6.82;;;;;;;-0.55;59.08;99210.13;5075367;28;20053;-61
2022/12/14 00:23:47;;;;;;;10.77;7.00;;;;;;;-0.37;58.96;99205.25;5075469;28;20052;-62
2022/12/14 00:26:16;;;;;;;9.93;6.40;;;;;;;-0.31;58.93;99204.16;5075456;28;20070;-62
2022/12/14 00:28:45;;;;;;;10.15;6.80;;;;;;;-0.28;58.47;99209.06;5074728;28;20075;-61
2022/12/14 00:31:12;;;;;;;9.30;6.38;;;;;;;-0.26;58.94;99201.41;5074831;28;20060;-61
2022/12/14 00:33:42;;;;;;;9.95;7.47;;;;;;;-0.25;58.79;99208.53;5059497;28;20052;-62
2022/12/14 00:36:11;;;;;;;9.30;6.25;;;;;;;-0.26;58.90;99198.66;5074376;28;20056;-61
2022/12/14 00:38:39;;;;;;;9.25;5.93;;;;;;;-0.25;58.55;99198.41;5074737;28;20056;-61
2022/12/14 00:41:07;;;;;;;9.45;5.90;;;;;;;-0.43;58.25;99196.22;5086061;28;20071;-61
2022/12/14 00:43:34;;;;;;;7.43;5.38;;;;;;;-0.34;58.72;99194.56;5093433;28;20071;-61
2022/12/14 00:46:01;;;;;;;9.40;5.90;;;;;;;-0.33;58.77;99189.94;5094955;28;20075;-61
2022/12/14 00:48:29;;;;;;;9.65;5.63;;;;;;;-0.25;58.21;99186.63;5094910;28;20052;-61
2022/12/14 00:50:58;;;;;;;8.65;5.35;;;;;;;-0.21;58.45;99176.75;5094883;28;20390;-61
2022/12/14 00:53:25;;;;;;;8.80;6.00;;;;;;;-0.23;58.53;99176.25;5094715;28;20051;-61
2022/12/14 00:55:53;;;;;;;8.55;5.57;;;;;;;-0.37;58.46;99172.41;5094905;28;20496;-61
2022/12/14 00:58:22;;;;;;;8.40;5.30;;;;;;;-0.34;58.84;99174.59;5092430;28;20048;-61
2022/12/14 01:00:59;;;;;;;8.90;5.82;;;;;;;-0.41;58.91;99186.63;5094572;28;20396;-61
2022/12/14 01:03:26;;;;;;;12.70;5.38;;;;;;;-0.33;58.86;99179.78;5093298;28;20066;-61
2022/12/14 01:05:53;;;;;;;7.70;5.30;;;;;;;-0.36;58.74;99174.03;5094695;28;20052;-62
2022/12/14 01:08:23;;;;;;;10.18;5.65;;;;;;;-0.31;58.79;99168.59;5093722;28;20059;-61
2022/12/14 01:10:53;;;;;;;9.95;6.00;;;;;;;-0.31;58.32;99166.66;5094530;28;20056;-61
2022/12/14 01:13:20;;;;;;;8.82;5.70;;;;;;;-0.46;59.21;99159.28;5093110;28;20052;-61
2022/12/14 01:15:47;;;;;;;8.93;5.95;;;;;;;-0.37;59.03;99154.09;5074524;28;20397;-61
2022/12/14 01:18:15;;;;;;;9.35;6.13;;;;;;;-0.30;58.67;99159.28;5073939;28;20048;-62
2022/12/14 01:20:42;;;;;;;12.23;7.30;;;;;;;-0.49;58.16;99150.81;5073594;28;20056;-61
2022/12/14 01:23:09;;;;;;;12.88;7.60;;;;;;;-0.50;58.89;99155.47;5078265;28;20075;-61
2022/12/14 01:25:38;;;;;;;12.82;7.05;;;;;;;-0.41;58.74;99145.59;5093308;28;20075;-61
2022/12/14 01:28:05;;;;;;;11.75;7.82;;;;;;;-0.38;58.67;99144.22;5092898;28;20059;-61
2022/12/14 01:30:32;;;;;;;12.52;7.85;;;;;;;-0.34;58.11;99149.97;5092806;28;20048;-61
2022/12/14 01:33:00;;;;;;;11.60;7.25;;;;;;;-0.43;58.38;99138.75;5093858;28;20052;-61
2022/12/14 01:35:27;;;;;;;12.73;8.10;;;;;;;-0.41;59.24;99134.66;5093954;28;20067;-61
2022/12/14 01:37:54;;;;;;;13.38;7.22;;;;;;;-0.35;58.80;99132.75;5094071;28;20074;-61
2022/12/14 01:40:23;;;;;;;9.55;6.03;;;;;;;-0.38;58.03;99137.94;5096879;28;20055;-61
2022/12/14 01:42:51;;;;;;;8.98;6.25;;;;;;;-0.39;57.75;99137.13;5112717;28;20044;-61
2022/12/14 01:45:21;;;;;;;9.48;6.18;;;;;;;-0.43;58.29;99142.31;5112391;28;20052;-61
2022/12/14 01:47:53;;;;;;;7.60;4.97;;;;;;;-0.58;58.01;99125.91;5106547;28;20051;-61
2022/12/14 01:50:26;;;;;;;9.15;5.68;;;;;;;-0.56;57.96;99131.94;5104752;28;20044;-61
2022/12/14 01:52:58;;;;;;;9.25;6.13;;;;;;;-0.55;58.50;99122.63;5093630;28;20056;-61
2022/12/14 01:55:28;;;;;;;8.85;5.57;;;;;;;-0.68;58.89;99124.00;5109936;28;20062;-61
2022/12/14 01:58:02;;;;;;;9.80;6.07;;;;;;;-0.60;58.58;99124.56;5113857;28;20488;-61
2022/12/14 02:00:30;;;;;;;8.52;5.75;;;;;;;-0.74;58.99;99110.59;5113314;28;20052;-61
2022/12/14 02:03:00;;;;;;;8.13;4.68;;;;;;;-0.67;58.89;99113.91;5106885;28;20097;-61
2022/12/14 02:05:28;;;;;;;;;;;;;;;-0.65;58.68;99107.06;5091811;28;20075;-61
2022/12/14 02:07:56;;;;;;;7.75;4.55;;;;;;;-0.65;58.33;99101.59;5093047;28;20380;-61
2022/12/14 02:10:31;;;;;;;7.07;4.78;;;;;;;-0.68;58.57;99106.78;5110909;28;20407;-61
2022/12/14 02:13:05;;;;;;;5.85;4.28;;;;;;;-0.71;58.47;99096.41;5110023;28;20074;-61
2022/12/14 02:15:34;;;;;;;7.30;4.78;;;;;;;-0.70;58.29;99098.03;5092745;28;20055;-61
2022/12/14 02:18:03;;;;;;;6.47;4.70;;;;;;;-0.69;58.71;99088.75;5094001;28;20480;-61
2022/12/14 02:20:39;;;;;;;8.30;4.63;;;;;;;-0.67;57.94;99098.31;5092561;28;20048;-61
2022/12/14 02:23:31;;;;;;;7.78;4.80;;;;;;;-0.79;58.30;99088.75;5098385;28;20400;-61
2022/12/14 02:26:26;;;;;;;8.80;5.35;;;;;;;-0.82;58.14;99077.28;5086943;28;20056;-62
2022/12/14 02:29:28;;;;;;;8.45;5.65;;;;;;;-0.91;58.73;99073.44;5092199;28;20052;-61
2022/12/14 02:32:07;;;;;;;7.85;5.55;;;;;;;-1.01;58.85;99070.69;5092608;28;20056;-61
2022/12/14 02:34:50;;;;;;;7.32;5.00;;;;;;;-1.14;59.39;99065.78;5092689;28;20060;-61
2022/12/14 02:37:26;;;;;;;11.48;5.45;;;;;;;-1.04;59.05;99068.50;5094588;28;20071;-61
2022/12/14 02:40:04;;;;;;;6.60;4.40;;;;;;;-1.07;59.30;99066.31;5113069;28;20048;-61
2022/12/14 02:42:41;;;;;;;6.88;4.57;;;;;;;-1.01;59.09;99062.50;5111865;28;20078;-61
2022/12/14 02:45:18;;;;;;;8.60;4.78;;;;;;;-1.01;58.25;99059.75;5095302;28;20559;-61
2022/12/14 02:47:54;;;;;;;6.97;4.25;;;;;;;-1.05;59.45;99053.19;5091062;28;20059;-61
2022/12/14 02:50:24;;;;;;;8.85;5.05;;;;;;;-1.08;58.47;99042.81;5072267;28;20053;-60
2022/12/14 02:53:03;;;;;;;9.13;5.00;;;;;;;-1.06;58.89;99035.16;5072299;28;20052;-61
2022/12/14 02:55:35;;;;;;;7.68;5.25;;;;;;;-1.06;58.77;99033.25;5072509;28;20063;-60
2022/12/14 02:58:08;;;;;;;6.63;4.68;;;;;;;-1.15;58.41;99031.34;5083564;28;20063;-61
2022/12/14 03:00:38;;;;;;;7.93;5.20;;;;;;;-1.19;58.33;99031.06;5106752;28;20048;-61
2022/12/14 03:03:06;;;;;;;7.40;4.70;;;;;;;-1.16;59.27;99019.59;5103978;28;20073;-61
2022/12/14 03:05:34;;;;;;;6.90;4.95;;;;;;;-1.21;58.41;99026.97;5100496;28;20056;-61
2022/12/14 03:08:03;;;;;;;7.43;5.25;;;;;;;-1.24;59.22;99020.97;5079537;28;20059;-61
2022/12/14 03:10:37;;;;;;;9.18;5.18;;;;;;;-1.28;58.79;99011.69;5071752;28;20055;-61
2022/12/14 03:18:35;;;;;;;8.48;5.18;;;;;;;-1.20;58.92;99017.69;4367972;23;20453;-62
2022/12/14 03:21:05;;;;;;;7.22;4.85;;;;;;;-1.31;58.81;99014.94;5072034;28;20067;-61
2022/12/14 03:23:38;;;;;;;8.35;4.45;;;;;;;-1.38;59.23;99000.75;5075957;28;20049;-62
2022/12/14 03:26:12;;;;;;;7.72;4.32;;;;;;;-1.25;59.74;99000.19;5076440;28;20057;-61
2022/12/14 03:28:45;;;;;;;6.35;4.18;;;;;;;-1.15;58.72;98987.66;5076353;28;20055;-62
2022/12/14 03:31:17;;;;;;;7.07;4.30;;;;;;;-1.25;59.55;99000.19;5075346;28;20048;-61
2022/12/14 03:33:48;;;;;;;7.57;4.55;;;;;;;-1.19;58.91;98984.63;5074653;28;20397;-62
2022/12/14 03:36:21;;;;;;;7.85;4.95;;;;;;;-1.14;59.00;98981.88;5075671;28;20056;-61
2022/12/14 03:38:52;;;;;;;9.25;5.32;;;;;;;-1.11;59.06;98986.00;5076218;28;20057;-62
2022/12/14 03:41:27;;;;;;;5.60;4.07;;;;;;;-1.10;58.16;98980.25;5076270;28;20408;-61
2022/12/14 03:44:13;;;;;;;8.73;4.55;;;;;;;-1.10;59.01;98974.78;5075033;28;20055;-60
2022/12/14 03:46:49;;;;;;;8.35;4.55;;;;;;;-1.14;58.32;98979.16;5075946;28;20056;-61
2022/12/14 03:49:22;;;;;;;7.82;4.53;;;;;;;-1.06;59.12;98978.59;5076164;28;20056;-62
2022/12/14 03:51:58;;;;;;;7.53;4.30;;;;;;;-1.09;58.53;98981.06;5076283;28;20056;-62
2022/12/14 03:54:36;;;;;;;6.32;3.80;;;;;;;-1.03;58.26;98974.50;5076392;28;20071;-61
2022/12/14 03:57:08;;;;;;;7.10;4.35;;;;;;;-0.99;59.05;98963.84;5076121;28;20056;-61
2022/12/14 03:59:39;;;;;;;6.68;4.05;;;;;;;-0.95;58.83;98965.75;5074683;28;20059;-61
2022/12/14 04:02:13;;;;;;;7.20;4.47;;;;;;;-0.93;58.38;98958.09;5075681;28;20393;-61
2022/12/14 04:04:46;;;;;;;7.53;4.38;;;;;;;-0.97;58.53;98957.00;5062134;28;20052;-61
2022/12/14 04:07:19;;;;;;;8.20;5.07;;;;;;;-1.03;58.31;98955.38;5075471;28;20053;-61
2022/12/14 04:09:52;;;;;;;7.55;4.85;;;;;;;-0.97;58.63;98954.25;5075432;28;20065;-61
2022/12/14 04:20:57;;;;;;;5.40;3.72;;;;;;;-0.82;56.82;98937.00;5073255;28;20052;-61
2022/12/14 04:26:22;;;;;;;5.47;3.22;;;;;;;-0.76;56.00;98938.63;5054216;28;20064;-60
2022/12/14 04:31:42;;;;;;;;;;;;;;;-0.79;56.27;98952.06;5080180;28;20059;-62
2022/12/14 04:34:12;;;;;;;4.50;3.38;;;;;;;-0.84;56.50;98945.50;5074856;28;20299;-61
2022/12/14 04:36:46;;;;;;;5.80;3.55;;;;;;;-0.73;56.36;98934.56;5074904;28;20056;-61
2022/12/14 04:39:18;;;;;;;6.30;3.58;;;;;;;-0.69;57.12;98935.63;5074825;28;20499;-62
2022/12/14 04:41:50;;;;;;;6.93;4.03;;;;;;;-0.74;56.10;98932.91;5073082;28;20389;-62
2022/12/14 04:44:22;;;;;;;6.75;3.92;;;;;;;-0.73;57.11;98918.97;5074989;28;20489;-61
2022/12/14 04:46:53;;;;;;;7.15;4.18;;;;;;;-0.73;57.75;98926.34;5074584;28;20052;-61
2022/12/14 04:49:24;;;;;;;6.18;3.80;;;;;;;-0.63;57.19;98931.75;5074739;28;20056;-62
2022/12/14 04:51:58;;;;;;;6.75;3.88;;;;;;;-0.66;57.03;98935.06;5074857;28;20071;-61
2022/12/14 04:54:31;;;;;;;4.95;3.25;;;;;;;-0.63;57.42;98931.75;5068521;28;20041;-61
2022/12/14 04:57:07;;;;;;;6.38;3.88;;;;;;;-0.63;57.06;98934.50;5054692;28;20060;-61
2022/12/14 04:59:35;;;;;;;6.45;3.97;;;;;;;-0.65;57.78;98928.50;5054805;28;20068;-62
2022/12/14 05:02:12;;;;;;;7.93;3.90;;;;;;;-0.66;58.21;98916.75;5054454;28;20064;-61
2022/12/14 05:04:53;;;;;;;6.07;3.75;;;;;;;-0.70;58.63;98912.13;5034869;28;20057;-61
2022/12/14 05:07:34;;;;;;;8.00;3.70;;;;;;;-0.54;58.39;98916.44;5034705;28;20060;-61
2022/12/14 05:10:06;;;;;;;5.68;3.95;;;;;;;-0.53;58.54;98918.06;5048992;28;20052;-61
2022/12/14 05:12:38;;;;;;;6.78;4.13;;;;;;;-0.62;58.58;98914.28;5053905;28;20413;-61
2022/12/14 05:15:10;;;;;;;6.85;4.22;;;;;;;-0.58;57.96;98909.06;5054328;28;20049;-61
2022/12/14 05:17:39;;;;;;;5.70;3.90;;;;;;;-0.57;57.65;98899.75;5054123;28;20053;-61
2022/12/14 05:20:13;;;;;;;6.30;4.60;;;;;;;-0.53;57.60;98901.66;5091090;28;20492;-61
2022/12/14 05:22:42;;;;;;;6.18;3.90;;;;;;;-0.53;57.45;98904.38;5092424;28;20058;-62
2022/12/14 05:25:09;;;;;;;6.88;3.95;;;;;;;-0.52;57.44;98900.56;5094046;28;20052;-61
2022/12/14 05:27:37;;;;;;;8.45;4.55;;;;;;;-0.46;57.29;98896.72;5094082;28;20048;-61
2022/12/14 05:30:06;;;;;;;7.47;5.63;;;;;;;-0.42;57.09;98897.78;5094308;28;20052;-60
2022/12/14 05:32:36;;;;;;;6.32;4.53;;;;;;;-0.52;56.97;98895.09;5090427;28;20392;-61
2022/12/14 05:35:05;;;;;;;6.35;4.35;;;;;;;-0.58;57.13;98889.94;5074113;28;20052;-61
2022/12/14 05:37:32;;;;;;;6.13;4.25;;;;;;;-0.60;57.22;98883.94;5081995;28;20048;-61
2022/12/14 05:40:01;;;;;;;7.68;4.43;;;;;;;-0.56;56.73;98880.34;5076966;28;20048;-61
2022/12/14 05:42:28;;;;;;;5.38;3.88;;;;;;;-0.54;57.84;98867.22;5093286;28;20044;-62
2022/12/14 05:44:55;;;;;;;7.82;3.88;;;;;;;-0.52;56.92;98872.41;5093388;28;20047;-61
2022/12/14 05:47:23;;;;;;;6.57;4.00;;;;;;;-0.55;57.70;98862.81;5094241;28;20403;-61
2022/12/14 05:49:50;;;;;;;6.72;4.28;;;;;;;-0.39;57.19;98870.97;5093616;28;20060;-61
2022/12/14 05:52:18;;;;;;;6.63;4.10;;;;;;;-0.41;57.34;98863.84;5094071;28;20052;-61
2022/12/14 05:54:45;;;;;;;7.22;4.38;;;;;;;-0.39;56.95;98862.78;5092966;28;20059;-62
2022/12/14 05:57:14;;;;;;;6.82;4.53;;;;;;;-0.45;57.15;98851.84;5094004;28;20052;-60
2022/12/14 05:59:41;;;;;;;5.80;4.20;;;;;;;-0.51;56.75;98855.69;5092958;28;20060;-60
2022/12/14 06:02:08;;;;;;;5.93;4.00;;;;;;;-0.57;56.39;98850.53;5093411;28;20047;-61
2022/12/14 06:04:35;;;;;;;6.35;3.92;;;;;;;-0.45;57.36;98849.09;5093449;28;20052;-61
2022/12/14 06:07:03;;;;;;;5.50;4.10;;;;;;;-0.40;57.04;98850.97;5093718;28;20056;-60
2022/12/14 06:09:30;;;;;;;5.38;3.95;;;;;;;-0.26;56.49;98846.53;5090901;28;20415;-60
2022/12/14 06:11:57;;;;;;;6.22;3.75;;;;;;;-0.37;56.71;98852.38;5093520;28;20055;-60
2022/12/14 06:14:26;;;;;;;5.00;3.67;;;;;;;-0.36;56.52;98846.59;5093585;28;20063;-60
2022/12/14 06:16:53;;;;;;;6.20;3.90;;;;;;;-0.35;56.60;98850.16;5092882;28;20059;-60
2022/12/14 06:19:21;;;;;;;4.88;3.88;;;;;;;-0.28;56.43;98847.91;5093036;28;20063;-60
2022/12/14 06:21:48;;;;;;;5.75;4.53;;;;;;;-0.29;56.38;98844.38;5093274;28;20055;-60
2022/12/14 06:24:15;;;;;;;9.50;6.45;;;;;;;-0.30;56.79;98842.72;5091479;28;20055;-61
2022/12/14 06:26:43;;;;;;;10.93;8.20;;;;;;;-0.33;56.65;98837.84;5087744;28;20104;-61
2022/12/14 06:29:15;;;;;;;8.77;5.63;;;;;;;-0.35;57.16;98831.00;5092064;28;20056;-60
2022/12/14 06:31:44;;;;;;;6.68;5.07;;;;;;;-0.34;56.97;98827.16;5090948;28;20040;-60
2022/12/14 06:34:11;;;;;;;8.20;5.32;;;;;;;-0.35;57.19;98823.63;5091191;28;20056;-60
2022/12/14 06:36:41;;;;;;;7.03;4.95;;;;;;;-0.29;56.73;98830.69;5091027;28;20048;-60
2022/12/14 06:39:11;;;;;;;6.63;4.22;;;;;;;-0.18;56.45;98825.97;5092765;28;20063;-60
2022/12/14 06:41:39;;;;;;;;;;;;;;;-0.33;57.12;98834.28;5088784;28;20040;-61
2022/12/14 06:44:07;;;;;;;8.95;5.60;;;;;;;-0.37;56.74;98833.22;5089504;28;20497;-61
2022/12/14 06:46:36;;;;;;;10.95;6.70;;;;;;;-0.31;57.14;98829.34;5088718;28;20064;-62
2022/12/14 06:49:06;;;;;;;8.63;5.32;;;;;;;-0.31;57.50;98829.34;5091847;28;20063;-61
2022/12/14 06:51:39;;;;;;;5.97;4.35;;;;;;;-0.16;56.85;98828.44;5091802;28;20039;-61
2022/12/14 06:54:06;;;;;;;5.72;4.32;;;;;;;-0.18;56.76;98825.97;5090018;28;20078;-62
2022/12/14 06:56:34;;;;;;;7.13;4.75;;;;;;;-0.18;56.57;98825.97;5087888;28;20052;-61
2022/12/14 06:59:01;;;;;;;5.97;4.40;;;;;;;-0.20;56.36;98822.69;5089741;28;20059;-61
2022/12/14 07:01:29;;;;;;;11.43;7.53;;;;;;;-0.21;56.89;98834.72;5087435;28;20487;-62
2022/12/14 07:03:58;;;;;;;19.25;12.10;;;;;;;-0.18;56.90;98836.91;5089072;28;20048;-61
2022/12/14 07:06:28;;;;;;;13.43;6.88;;;;;;;-0.06;56.86;98837.38;5091179;28;20074;-61
2022/12/14 07:08:56;;;;;;;;;;;;;;;0.01;56.42;98834.31;5092985;28;20056;-61
2022/12/14 07:11:24;;;;;;;6.55;4.65;;;;;;;0.01;56.48;98839.78;5092142;28;19930;-61
2022/12/14 07:13:52;;;;;;;6.22;4.03;;;;;;;-0.05;56.60;98829.97;5092598;28;20063;-61
2022/12/14 07:16:22;;;;;;;6.28;3.65;;;;;;;-0.14;56.63;98843.44;5091833;28;20066;-61
2022/12/14 07:18:50;;;;;;;6.17;4.37;;;;;;;-0.13;56.88;98834.13;5085959;28;20056;-61
2022/12/14 07:21:19;;;;;;;6.80;3.92;;;;;;;-0.14;57.06;98837.97;5091694;28;20052;-62
2022/12/14 07:23:50;;;;;;;5.77;3.87;;;;;;;-0.06;57.33;98842.03;5092254;28;20051;-61
2022/12/14 07:26:19;;;;;;;4.43;2.90;;;;;;;0.03;57.57;98836.78;5091992;28;20056;-61
2022/12/14 07:28:47;;;;;;;4.80;3.70;;;;;;;0.07;57.53;98843.31;5092612;28;20492;-61
2022/12/14 07:31:16;;;;;;;5.85;3.88;;;;;;;-0.02;57.20;98843.91;5090168;28;20052;-61
2022/12/14 07:33:43;;;;;;;5.53;3.72;;;;;;;0.03;57.19;98847.72;5089090;28;20488;-61
2022/12/14 07:36:12;;;;;;;6.32;4.43;;;;;;;-0.17;57.20;98852.22;5090250;28;20075;-61
2022/12/14 07:38:41;;;;;;;6.53;4.38;;;;;;;-0.04;57.16;98853.53;5091165;28;20052;-61
2022/12/14 07:41:12;;;;;;;8.23;4.68;;;;;;;0.15;56.93;98845.44;5089809;28;20060;-61
2022/12/14 07:43:40;;;;;;;6.20;3.97;;;;;;;0.11;56.90;98860.81;5092033;28;20075;-61
2022/12/14 07:46:10;;;;;;;5.88;3.60;;;;;;;0.20;57.09;98853.59;5089744;28;20491;-61
2022/12/14 07:48:38;;;;;;;5.00;3.55;;;;;;;0.27;56.68;98854.09;5084954;28;20407;-61
2022/12/14 07:51:07;;;;;;;5.32;3.20;;;;;;;0.23;56.79;98865.91;5087753;28;20044;-61
2022/12/14 07:53:36;;;;;;;5.60;3.60;;;;;;;0.25;56.93;98856.28;5088793;28;20052;-59
2022/12/14 07:56:05;;;;;;;8.93;4.53;;;;;;;-0.29;57.69;98858.06;5086767;28;20048;-46
2022/12/14 07:59:00;;;;;;;7.00;3.97;;;;;;;0.10;57.16;98862.72;5124401;27;20569;-63
2022/12/14 08:01:29;;;;;;;5.45;4.30;;;;;;;0.26;56.36;98855.19;5125380;27;20047;-64
2022/12/14 08:03:58;;;;;;;6.60;4.47;;;;;;;0.29;56.84;98851.06;5122792;27;20062;-65
2022/12/14 08:06:27;;;;;;;7.28;4.18;;;;;;;0.32;56.67;98856.81;5124747;27;20051;-65
2022/12/14 08:08:55;;;;;;;9.20;4.10;;;;;;;0.60;55.96;98859.84;5126012;27;20051;-65
2022/12/14 08:11:24;;;;;;;8.15;4.50;;;;;;;0.73;55.36;98850.94;5125044;27;20062;-66
2022/12/14 08:13:53;;;;;;;7.00;3.72;;;;;;;0.78;54.83;98859.13;5130226;27;20066;-66
2022/12/14 08:16:22;;;;;;;5.82;3.70;;;;;;;0.76;54.83;98861.31;5125800;27;20058;-66
2022/12/14 08:18:52;;;;;;;10.77;5.05;;;;;;;0.80;55.13;98859.63;5124190;27;20466;-66
2022/12/14 08:21:20;;;;;;;6.57;3.85;;;;;;;0.96;54.75;98860.28;5125043;28;20055;-66
2022/12/14 08:23:48;;;;;;;6.00;3.78;;;;;;;0.98;53.95;98857.25;5124885;27;20063;-66
2022/12/14 08:26:16;;;;;;;6.35;4.07;;;;;;;1.08;54.21;98857.16;5122514;28;20055;-66
2022/12/14 08:28:43;;;;;;;4.65;3.60;;;;;;;1.22;53.58;98868.25;5117357;27;20615;-66
2022/12/14 08:31:13;;;;;;;5.75;3.72;;;;;;;1.21;53.87;98872.06;5122180;28;20047;-66
2022/12/14 08:33:42;;;;;;;5.03;3.45;;;;;;;1.20;53.43;98863.03;5115313;27;20051;-66
2022/12/14 08:36:12;;;;;;;5.28;3.42;;;;;;;1.21;53.89;98867.41;5121176;28;20055;-66
2022/12/14 08:38:40;;;;;;;6.38;3.60;;;;;;;1.37;52.96;98865.31;5124008;27;20043;-66
2022/12/14 08:41:10;;;;;;;5.95;4.03;;;;;;;1.35;53.33;98859.28;5114684;28;20421;-66
2022/12/14 08:43:38;;;;;;;;;;;;;;;1.42;53.25;98856.19;5119392;27;20048;-66
2022/12/14 08:46:06;;;;;;;5.70;3.45;;;;;;;1.48;52.64;98854.22;5118428;28;21337;-66
2022/12/14 08:48:33;;;;;;;6.10;3.75;;;;;;;1.45;52.24;98861.09;5121964;27;20040;-66
2022/12/14 08:51:07;;;;;;;5.95;3.92;;;;;;;1.49;52.87;98856.66;5116289;28;20047;-66
2022/12/14 08:53:35;;;;;;;7.50;4.22;;;;;;;1.56;52.84;98859.84;5129153;27;20074;-64
2022/12/14 08:56:04;;;;;;;11.43;6.70;;;;;;;1.55;53.28;98854.66;5109153;28;20491;-64
2022/12/14 08:58:32;;;;;;;9.45;6.40;;;;;;;1.53;53.48;98865.09;5122068;27;20053;-65
2022/12/14 09:01:03;;;;;;;100.47;45.92;;;;;;;1.52;53.93;98872.53;5124719;27;20107;-65
2022/12/14 09:03:30;;;;;;;68.45;33.17;;;;;;;1.55;54.02;98866.44;5127745;28;20046;-65
2022/12/14 09:06:01;;;;;;;40.53;20.33;;;;;;;1.47;53.55;98867.13;5128893;28;20051;-65
2022/12/14 09:08:31;;;;;;;17.25;10.40;;;;;;;1.61;53.99;98864.44;5119069;28;20043;-65
2022/12/14 09:10:58;;;;;;;11.23;7.57;;;;;;;1.66;53.33;98858.06;5108583;28;20051;-65
2022/12/14 09:13:26;;;;;;;11.95;7.65;;;;;;;1.74;53.58;98857.41;5114772;28;20047;-65
2022/12/14 09:15:57;;;;;;;12.02;6.93;;;;;;;1.84;53.92;98857.28;5118099;27;20062;-65
2022/12/14 09:18:25;;;;;;;12.25;6.80;;;;;;;1.85;52.77;98858.09;5124211;27;20454;-65
2022/12/14 09:20:54;;;;;;;11.10;7.00;;;;;;;1.72;53.15;98860.47;5123706;27;20062;-65
2022/12/14 09:23:23;;;;;;;10.10;7.18;;;;;;;1.84;53.62;98862.75;5115313;28;20055;-65
2022/12/14 09:26:00;;;;;;;9.38;6.63;;;;;;;1.91;53.07;98856.91;5132728;27;20078;-65
2022/12/14 09:28:28;;;;;;;9.02;6.53;;;;;;;1.96;53.85;98859.59;5135360;27;20050;-65
2022/12/14 09:30:57;;;;;;;10.50;7.20;;;;;;;2.00;52.94;98858.69;5098086;28;20071;-65
2022/12/14 09:33:25;;;;;;;9.85;7.20;;;;;;;2.06;53.94;98864.09;5127046;27;20055;-65
2022/12/14 09:35:52;;;;;;;8.60;6.72;;;;;;;2.10;54.31;98862.38;5100012;28;20047;-65
2022/12/14 09:38:20;;;;;;;11.07;7.63;;;;;;;2.14;53.74;98866.16;5113119;28;20495;-65
2022/12/14 09:40:55;;;;;;;9.93;6.95;;;;;;;2.19;53.11;98868.84;5104206;27;20050;-65
2022/12/14 09:43:41;;;;;;;12.68;7.78;;;;;;;2.18;53.51;98873.53;5102510;28;20048;-65
2022/12/14 09:46:21;;;;;;;10.40;6.97;;;;;;;2.25;53.11;98870.41;5099994;27;20055;-65
2022/12/14 09:48:50;;;;;;;8.55;6.00;;;;;;;2.25;53.72;98875.91;5106250;28;20412;-65
2022/12/14 09:51:21;;;;;;;8.23;6.05;;;;;;;2.20;53.63;98876.75;5105582;28;20043;-65
2022/12/14 09:53:51;;;;;;;;;;;;;;;2.27;52.00;98868.19;5100928;28;20052;-65
2022/12/14 09:56:21;;;;;;;9.13;6.22;;;;;;;2.30;51.79;98867.56;5101865;28;19920;-65
2022/12/14 09:58:55;;;;;;;8.10;4.10;;;;;;;2.41;50.05;98874.50;5105656;28;20043;-65
2022/12/14 10:01:57;;;;;;;7.70;4.35;;;;;;;2.47;49.14;98863.47;5103848;28;20062;-65
2022/12/14 10:04:35;;;;;;;5.88;4.13;;;;;;;2.49;48.77;98861.22;5070591;28;20055;-65
2022/12/14 10:07:13;;;;;;;7.05;4.72;;;;;;;2.47;49.96;98861.50;5103344;28;20066;-66
2022/12/14 10:09:46;;;;;;;6.90;4.65;;;;;;;2.48;48.96;98865.06;5097135;28;20048;-66
2022/12/14 10:12:25;;;;;;;8.18;4.95;;;;;;;2.58;49.07;98868.50;5099548;28;20048;-65
2022/12/14 10:15:04;;;;;;;8.68;4.63;;;;;;;2.56;48.95;98864.38;5094242;28;20055;-65
2022/12/14 10:17:50;;;;;;;7.28;5.03;;;;;;;2.54;50.01;98870.22;5127102;27;20047;-65
2022/12/14 10:20:24;;;;;;;8.18;6.13;;;;;;;2.61;50.01;98861.56;5098560;28;20074;-65
2022/12/14 10:22:53;;;;;;;7.70;5.43;;;;;;;2.64;50.36;98864.50;5110906;28;20648;-65
2022/12/14 10:25:23;;;;;;;14.75;10.93;;;;;;;2.71;50.29;98858.63;5097719;28;20059;-65
2022/12/14 10:27:57;;;;;;;13.00;8.95;;;;;;;2.72;50.63;98857.50;5097095;27;20059;-65
2022/12/14 10:30:25;;;;;;;11.95;8.68;;;;;;;2.76;50.48;98850.28;5128544;27;20043;-65
2022/12/14 10:33:02;;;;;;;10.45;7.53;;;;;;;2.74;49.87;98852.53;5123585;27;20063;-65
2022/12/14 10:35:38;;;;;;;11.25;7.38;;;;;;;2.80;49.91;98840.31;5117107;27;20047;-65
2022/12/14 10:38:19;;;;;;;12.02;6.75;;;;;;;2.90;51.46;98850.31;5128169;27;20050;-65
2022/12/14 10:40:50;;;;;;;9.85;6.43;;;;;;;2.93;51.04;98849.69;5106977;27;20059;-65
2022/12/14 10:43:34;;;;;;;8.02;5.68;;;;;;;2.98;51.70;98846.88;5102826;27;20047;-65
2022/12/14 10:46:13;;;;;;;11.50;6.85;;;;;;;3.00;50.79;98850.13;5097966;27;20427;-65
2022/12/14 10:48:51;;;;;;;9.18;6.45;;;;;;;2.98;49.87;98854.28;5114764;27;20070;-65
2022/12/14 10:51:24;;;;;;;10.65;5.85;;;;;;;2.94;50.50;98845.00;5132721;27;20500;-64
2022/12/14 10:53:55;;;;;;;7.32;5.50;;;;;;;2.99;50.42;98845.75;5098580;27;20054;-64
2022/12/14 10:56:26;;;;;;;8.30;6.07;;;;;;;3.02;49.84;98842.41;5133757;27;20051;-65
2022/12/14 10:59:25;;;;;;;9.52;6.25;;;;;;;2.90;49.94;98841.25;5108798;28;20054;-65
2022/12/14 11:01:59;;;;;;;8.90;6.28;;;;;;;3.06;50.56;98848.09;5082740;27;20377;-65
2022/12/14 11:04:32;;;;;;;8.88;6.45;;;;;;;3.08;50.30;98832.09;5103620;28;20118;-64
2022/12/14 11:07:03;;;;;;;12.50;7.25;;;;;;;3.28;49.45;98827.31;5108819;28;20526;-65
2022/12/14 11:09:30;;;;;;;9.77;6.57;;;;;;;3.40;48.23;98822.09;5090702;28;20056;-65
2022/12/14 11:12:01;;;;;;;13.07;7.78;;;;;;;3.38;49.84;98829.84;5108448;28;20055;-64
2022/12/14 11:14:28;;;;;;;9.82;7.03;;;;;;;3.36;49.14;98829.31;5107312;28;20051;-64
2022/12/14 11:16:57;;;;;;;9.52;5.80;;;;;;;3.40;49.37;98824.84;5089140;28;20063;-64
2022/12/14 11:19:26;;;;;;;7.57;5.72;;;;;;;3.45;48.92;98822.00;5095393;28;20039;-64
2022/12/14 11:22:07;;;;;;;7.18;5.72;;;;;;;3.58;46.95;98814.84;5098896;28;20064;-65
2022/12/14 11:24:44;;;;;;;8.63;5.88;;;;;;;3.61;46.76;98822.47;5080253;28;20066;-64
2022/12/14 11:27:12;;;;;;;8.25;5.60;;;;;;;3.60;47.46;98821.66;5080769;28;20055;-64
2022/12/14 11:29:44;;;;;;;9.35;5.70;;;;;;;3.66;47.47;98823.16;5089735;28;20060;-64
2022/12/14 11:32:19;;;;;;;8.40;5.57;;;;;;;3.72;46.63;98823.88;5088653;28;20412;-64
2022/12/14 11:34:54;;;;;;;8.25;5.57;;;;;;;3.64;46.59;98819.91;5084984;28;20056;-64
2022/12/14 11:37:24;;;;;;;8.60;5.57;;;;;;;3.76;47.11;98819.38;5071928;28;21338;-64
2022/12/14 11:39:53;;;;;;;12.90;8.48;;;;;;;3.86;46.71;98818.31;5092684;28;20602;-64
2022/12/14 11:42:22;;;;;;;16.70;10.82;;;;;;;3.89;47.52;98812.22;5094057;28;20492;-64
2022/12/14 11:44:50;;;;;;;18.17;10.30;;;;;;;3.93;47.68;98815.97;5098887;28;20396;-64
2022/12/14 11:47:21;;;;;;;12.10;7.63;;;;;;;3.97;47.70;98816.97;5108032;28;20109;-64
2022/12/14 11:49:50;;;;;;;16.30;8.68;;;;;;;4.01;48.80;98811.63;5096210;28;20606;-64
2022/12/14 11:52:19;;;;;;;15.67;10.07;;;;;;;4.05;48.51;98813.47;5110965;28;20059;-64
2022/12/14 11:54:48;;;;;;;12.27;8.57;;;;;;;4.07;47.70;98821.41;5088975;28;21036;-64
2022/12/14 11:57:22;;;;;;;12.13;6.83;;;;;;;4.14;47.90;98821.00;5102189;28;20533;-64
2022/12/14 11:59:53;;;;;;;11.30;7.72;;;;;;;4.12;48.08;98824.06;5106076;28;20512;-64
2022/12/14 12:02:27;;;;;;;11.32;8.15;;;;;;;4.15;47.19;98825.38;5103718;28;20048;-64
2022/12/14 12:05:00;;;;;;;10.00;7.75;;;;;;;4.19;47.87;98815.34;5107951;28;20067;-64
2022/12/14 12:07:33;;;;;;;12.32;8.15;;;;;;;4.23;46.59;98814.41;5100171;28;20055;-64
2022/12/14 12:10:05;;;;;;;13.05;7.47;;;;;;;4.22;47.91;98823.81;5126297;28;20047;-63
2022/12/14 12:12:33;;;;;;;12.57;8.18;;;;;;;4.26;47.45;98815.72;5116569;28;20054;-63
2022/12/14 12:15:00;;;;;;;10.73;7.70;;;;;;;4.29;47.81;98823.38;5110964;28;20054;-65